Time;durP1;ratioP1;P1;durP2;ratioP2;P2;SDS_P1;SDS_P2;PMS_P1;PMS_P2;Temp;Humidity;BMP_temperature;BMP_pressure;BME280_temperature;BME280_humidity;BME280_pressure;Samples;Min_cycle;Max_cycle;Signal;HPM_P1;HPM_P2
2023/11/26 00:02:05;;;;;;;28.02;13.65;;;;;;;-1.80;69.20;97761.06;5011161;28;21261;-57
2023/11/26 00:04:31;;;;;;;22.60;12.48;;;;;;;-1.78;68.48;97759.88;4994464;28;20046;-60
2023/11/26 00:06:57;;;;;;;22.13;12.05;;;;;;;-1.80;68.90;97766.28;5011574;28;20091;-59
2023/11/26 00:09:23;;;;;;;23.67;12.30;;;;;;;-1.84;69.12;97763.28;4994484;28;20042;-57
2023/11/26 00:11:49;;;;;;;24.17;12.40;;;;;;;-1.80;70.00;97761.88;5009885;28;20641;-59
2023/11/26 00:14:15;;;;;;;22.88;11.30;;;;;;;-1.77;69.60;97760.69;5011586;28;20037;-58
2023/11/26 00:16:41;;;;;;;23.40;12.73;;;;;;;-1.76;70.07;97763.09;5010608;28;20045;-58
2023/11/26 00:19:07;;;;;;;27.33;12.75;;;;;;;-1.68;69.38;97759.47;5012024;28;20427;-58
2023/11/26 00:21:33;;;;;;;24.90;13.57;;;;;;;-1.67;69.49;97759.31;5011239;28;20044;-58
2023/11/26 00:23:59;;;;;;;29.63;14.70;;;;;;;-1.66;69.57;97763.50;5010355;28;20041;-58
2023/11/26 00:26:26;;;;;;;28.30;14.52;;;;;;;-1.62;70.12;97763.88;5011670;28;20050;-57
2023/11/26 00:28:57;;;;;;;35.95;16.90;;;;;;;-1.57;70.58;97755.50;4979858;28;20038;-55
2023/11/26 00:31:24;;;;;;;39.25;17.98;;;;;;;-1.50;70.23;97753.69;4993398;28;20388;-59
2023/11/26 00:33:50;;;;;;;33.15;16.67;;;;;;;-1.35;70.94;97748.28;5026673;28;20095;-57
2023/11/26 00:36:16;;;;;;;33.13;16.55;;;;;;;-1.25;70.01;97749.50;5010259;28;20045;-56
2023/11/26 00:38:43;;;;;;;30.35;15.60;;;;;;;-1.22;70.09;97753.50;4993523;28;20069;-56
2023/11/26 00:41:09;;;;;;;30.15;15.25;;;;;;;-1.23;69.54;97751.91;4989925;28;20081;-56
2023/11/26 00:43:35;;;;;;;29.25;14.68;;;;;;;-1.19;69.92;97753.88;5004868;28;20139;-57
2023/11/26 00:46:01;;;;;;;25.52;14.45;;;;;;;-1.19;68.85;97753.09;5010326;28;20518;-57
2023/11/26 04:26:25;;;;;;;22.33;12.10;;;;;;;-1.74;71.60;97854.59;5005701;28;20581;-59
2023/11/26 04:28:50;;;;;;;21.92;11.85;;;;;;;-1.75;71.20;97855.59;5018823;28;20065;-57
2023/11/26 04:31:16;;;;;;;25.35;12.75;;;;;;;-1.75;71.07;97842.63;5031707;28;20049;-60
2023/11/26 04:33:42;;;;;;;22.92;11.45;;;;;;;-1.74;71.08;97851.19;5027937;28;20033;-61
2023/11/26 04:36:08;;;;;;;24.85;11.73;;;;;;;-1.78;70.89;97855.19;5013722;28;20455;-59
2023/11/26 04:38:33;;;;;;;26.08;11.85;;;;;;;-1.81;70.80;97853.00;5030148;28;20037;-55
2023/11/26 04:40:59;;;;;;;20.20;11.50;;;;;;;-1.81;70.88;97856.38;5028597;28;20052;-59
2023/11/26 04:43:26;;;;;;;24.42;12.05;;;;;;;-1.84;71.08;97851.59;5011946;28;20029;-57
2023/11/26 04:45:53;;;;;;;23.15;11.15;;;;;;;-1.75;70.70;97849.59;5011555;28;20052;-58
2023/11/26 04:48:18;;;;;;;19.75;11.52;;;;;;;-1.74;70.77;97856.41;5011516;28;20065;-58
2023/11/26 04:50:44;;;;;;;20.02;11.70;;;;;;;-1.80;70.20;97845.00;5010276;28;20046;-59
2023/11/26 04:53:10;;;;;;;21.98;12.32;;;;;;;-1.84;70.77;97852.38;5011387;28;20081;-58
2023/11/26 04:55:36;;;;;;;23.70;12.02;;;;;;;-1.83;70.81;97853.19;4993977;28;20507;-58
2023/11/26 04:58:02;;;;;;;22.50;10.98;;;;;;;-1.80;71.57;97851.97;5012964;28;20396;-60
2023/11/26 05:00:28;;;;;;;22.02;12.27;;;;;;;-1.82;71.08;97844.41;5030048;28;20049;-58
2023/11/26 05:02:55;;;;;;;21.23;11.65;;;;;;;-1.92;71.40;97841.38;5031408;28;20626;-58
2023/11/26 05:05:21;;;;;;;20.45;11.40;;;;;;;-1.93;71.87;97839.78;5029799;28;20081;-60
2023/11/26 05:07:47;;;;;;;25.60;12.30;;;;;;;-2.01;71.86;97852.91;5031171;28;20449;-58
2023/11/26 05:10:12;;;;;;;27.27;12.77;;;;;;;-2.08;71.75;97842.53;5029804;28;20071;-60
2023/11/26 05:12:38;;;;;;;28.27;13.98;;;;;;;-2.13;72.50;97848.28;5029883;28;20057;-58
2023/11/26 05:15:04;;;;;;;26.80;13.23;;;;;;;-2.18;72.50;97847.25;5031238;28;20124;-58
2023/11/26 05:17:32;;;;;;;29.08;14.77;;;;;;;-2.28;72.61;97834.63;5029567;28;20050;-57
2023/11/26 05:19:57;;;;;;;27.70;15.30;;;;;;;-2.32;73.12;97828.25;5030908;28;20042;-59
2023/11/26 05:22:23;;;;;;;26.73;14.75;;;;;;;-2.28;73.70;97843.22;5012912;28;20064;-58
2023/11/26 05:24:49;;;;;;;26.77;15.52;;;;;;;-2.29;72.97;97843.44;5023465;28;20033;-58
2023/11/26 05:27:14;;;;;;;29.33;14.85;;;;;;;-2.33;73.46;97847.38;5009488;28;20058;-56
2023/11/26 05:29:40;;;;;;;32.00;15.45;;;;;;;-2.35;73.41;97842.41;5009900;28;20054;-58
2023/11/26 05:32:06;;;;;;;33.03;16.05;;;;;;;-2.37;73.28;97825.41;5009054;28;20392;-58
2023/11/26 05:34:33;;;;;;;30.27;16.40;;;;;;;-2.39;73.80;97830.00;5011128;28;20038;-59
2023/11/26 05:37:00;;;;;;;32.10;15.98;;;;;;;-2.47;74.02;97836.16;5026426;28;20038;-58
2023/11/26 05:39:26;;;;;;;29.13;15.73;;;;;;;-2.50;73.82;97839.09;5010238;28;20088;-59
2023/11/26 05:41:52;;;;;;;29.38;16.27;;;;;;;-2.49;74.53;97840.72;5026652;28;20061;-57
2023/11/26 05:44:17;;;;;;;26.83;13.98;;;;;;;-2.44;73.72;97834.94;4994503;28;20046;-58
2023/11/26 05:46:43;;;;;;;25.58;13.77;;;;;;;-2.42;73.73;97843.34;5014704;28;20064;-59
2023/11/26 05:49:09;;;;;;;28.73;14.07;;;;;;;-2.45;73.83;97836.75;5014803;28;20111;-57
2023/11/26 05:51:35;;;;;;;25.58;12.32;;;;;;;-2.46;73.40;97836.97;5014627;28;20061;-60
2023/11/26 05:54:00;;;;;;;26.55;12.93;;;;;;;-2.46;73.50;97834.38;5013546;28;20507;-57
2023/11/26 05:56:26;;;;;;;24.05;12.73;;;;;;;-2.50;73.27;97833.91;5014162;28;20549;-58
2023/11/26 05:58:52;;;;;;;21.30;11.40;;;;;;;-2.55;73.44;97837.09;5018785;28;20137;-58
2023/11/26 06:01:24;;;;;;;25.15;12.35;;;;;;;-2.52;73.33;97833.34;5033168;28;20045;-58
2023/11/26 06:03:51;;;;;;;23.33;11.57;;;;;;;-2.45;73.50;97841.16;5049169;28;20414;-57
2023/11/26 06:06:16;;;;;;;23.38;12.02;;;;;;;-2.48;73.13;97852.69;5033572;28;20426;-60
2023/11/26 06:08:42;;;;;;;25.40;12.57;;;;;;;-2.53;73.61;97853.28;5034425;28;20034;-59
2023/11/26 06:11:08;;;;;;;26.35;13.25;;;;;;;-2.46;73.72;97849.94;5032664;28;20056;-61
2023/11/26 06:13:34;;;;;;;29.73;12.95;;;;;;;-2.39;73.04;97855.94;5034296;28;20439;-54
2023/11/26 06:15:59;;;;;;;22.30;12.25;;;;;;;-2.28;72.55;97860.59;5032718;28;20045;-57
2023/11/26 06:18:25;;;;;;;21.80;11.85;;;;;;;-2.29;72.68;97856.41;5033907;28;20142;-58
2023/11/26 06:20:52;;;;;;;28.80;13.00;;;;;;;-2.26;72.73;97850.84;5033683;28;20411;-60
2023/11/26 06:23:17;;;;;;;26.00;12.65;;;;;;;-2.20;72.90;97857.06;5034022;28;20041;-59
2023/11/26 06:25:43;;;;;;;31.02;14.30;;;;;;;-2.11;72.53;97851.50;5026688;28;20043;-58
2023/11/26 06:28:10;;;;;;;31.08;14.95;;;;;;;-2.08;72.00;97856.28;5014180;28;20511;-58
2023/11/26 06:30:36;;;;;;;32.28;14.50;;;;;;;-2.06;71.96;97854.31;5014011;28;20132;-58
2023/11/26 06:33:03;;;;;;;29.13;15.05;;;;;;;-2.00;71.80;97847.53;5014140;28;20125;-59
2023/11/26 06:35:29;;;;;;;27.80;12.98;;;;;;;-1.90;71.25;97850.56;5013659;28;20050;-57
2023/11/26 06:37:54;;;;;;;29.13;14.48;;;;;;;-1.86;71.33;97845.78;5012313;28;20046;-58
2023/11/26 06:40:21;;;;;;;28.15;13.82;;;;;;;-1.92;70.69;97843.97;5013752;28;20046;-59
2023/11/26 06:42:46;;;;;;;28.35;13.65;;;;;;;-1.98;71.15;97842.16;5013955;28;20523;-58
2023/11/26 06:45:12;;;;;;;28.55;14.85;;;;;;;-2.02;71.29;97849.53;5012635;28;20046;-59
2023/11/26 06:47:38;;;;;;;30.80;13.65;;;;;;;-2.03;71.13;97850.50;4995062;28;20058;-57
2023/11/26 06:50:05;;;;;;;27.10;13.68;;;;;;;-2.02;71.06;97846.13;5012165;28;20057;-55
2023/11/26 06:52:33;;;;;;;32.88;14.07;;;;;;;-1.99;70.74;97850.94;5012283;28;20041;-57
2023/11/26 06:55:00;;;;;;;29.55;14.77;;;;;;;-1.91;70.56;97855.94;5013277;28;20073;-58
2023/11/26 06:57:25;;;;;;;29.10;15.05;;;;;;;-1.89;70.57;97859.16;5011471;28;20042;-60
2023/11/26 06:59:52;;;;;;;26.70;13.80;;;;;;;-1.92;70.36;97854.34;5013414;28;20060;-60
2023/11/26 07:02:18;;;;;;;32.03;14.73;;;;;;;-1.94;70.50;97851.97;5026002;28;20392;-59
2023/11/26 07:04:45;;;;;;;33.97;15.65;;;;;;;-1.99;71.18;97851.72;5013340;28;20042;-60
2023/11/26 07:07:10;;;;;;;31.63;14.52;;;;;;;-1.94;70.80;97851.13;5012148;28;20236;-61
2023/11/26 07:09:36;;;;;;;25.77;14.32;;;;;;;-2.05;71.17;97834.34;5007812;28;20042;-60
2023/11/26 07:12:02;;;;;;;31.80;15.45;;;;;;;-2.08;70.99;97847.72;5010654;28;20439;-59
2023/11/26 07:14:29;;;;;;;29.80;14.60;;;;;;;-2.13;71.33;97858.66;5010900;28;20070;-60
2023/11/26 07:16:54;;;;;;;32.45;15.45;;;;;;;-2.14;71.60;97858.88;5011221;28;20040;-57
2023/11/26 07:19:20;;;;;;;35.90;16.30;;;;;;;-2.15;71.91;97859.84;5010704;28;20427;-57
2023/11/26 07:21:47;;;;;;;31.10;15.93;;;;;;;-2.15;71.74;97852.84;5012612;28;20516;-58
2023/11/26 07:24:13;;;;;;;31.13;15.95;;;;;;;-2.14;71.91;97853.69;5011422;28;20045;-58
2023/11/26 07:26:38;;;;;;;35.10;16.08;;;;;;;-2.14;71.75;97854.47;5006246;28;20054;-61
2023/11/26 07:29:04;;;;;;;49.45;21.30;;;;;;;-2.17;71.89;97859.25;5008794;28;20110;-59
2023/11/26 07:31:30;;;;;;;44.78;21.98;;;;;;;-2.16;71.97;97859.06;4992377;28;20594;-62
2023/11/26 07:33:56;;;;;;;39.25;18.50;;;;;;;-2.13;71.80;97863.06;5007982;28;20176;-60
2023/11/26 07:36:23;;;;;;;50.92;21.05;;;;;;;-2.17;72.03;97865.25;5009628;28;20061;-61
2023/11/26 07:38:53;;;;;;;41.28;20.30;;;;;;;-2.21;71.90;97877.00;5009489;28;20114;-58
2023/11/26 07:41:23;;;;;;;42.08;18.52;;;;;;;-2.18;72.29;97881.78;5012861;28;20046;-58
2023/11/26 07:43:49;;;;;;;;;;;;;;;-2.11;71.93;97879.25;5011501;28;20045;-61
2023/11/26 07:46:15;;;;;;;36.15;17.48;;;;;;;-2.08;72.00;97871.06;4993585;28;20391;-60
2023/11/26 07:48:42;;;;;;;31.50;15.77;;;;;;;-2.07;71.83;97878.66;5011809;28;20175;-60
2023/11/26 07:51:08;;;;;;;33.95;16.85;;;;;;;-2.03;71.42;97868.69;5010434;28;20415;-60
2023/11/26 07:53:34;;;;;;;31.30;15.98;;;;;;;-2.02;71.27;97869.50;5009730;28;20034;-59
2023/11/26 07:56:00;;;;;;;31.27;15.52;;;;;;;-1.99;71.36;97874.31;4991313;28;20044;-59
2023/11/26 07:58:27;;;;;;;31.02;15.38;;;;;;;-1.93;71.32;97871.72;5008215;28;20527;-57
2023/11/26 08:00:56;;;;;;;29.90;15.23;;;;;;;-1.83;71.08;97871.34;5010396;28;20038;-60
2023/11/26 08:03:26;;;;;;;29.23;15.82;;;;;;;-1.68;70.80;97860.81;5010459;28;20418;-58
2023/11/26 08:05:56;;;;;;;32.33;16.30;;;;;;;-1.74;70.15;97848.59;5010590;28;20046;-61
2023/11/26 08:08:22;;;;;;;33.53;15.23;;;;;;;-1.66;70.06;97858.81;5011267;28;20033;-61
2023/11/26 08:10:51;;;;;;;35.95;19.85;;;;;;;-1.76;70.81;97864.41;4974124;28;20139;-61
2023/11/26 08:13:22;;;;;;;36.17;17.98;;;;;;;-1.73;70.60;97866.59;5011870;28;20052;-62
2023/11/26 08:15:56;;;;;;;34.15;17.38;;;;;;;-1.66;70.51;97871.81;5011627;28;20049;-60
2023/11/26 08:18:23;;;;;;;37.13;16.50;;;;;;;-1.57;70.17;97873.22;5011851;28;20046;-62
2023/11/26 08:20:49;;;;;;;28.85;15.48;;;;;;;-1.58;70.02;97871.63;5012282;28;20041;-60
2023/11/26 08:23:15;;;;;;;29.80;15.70;;;;;;;-1.58;70.12;97869.03;4993239;28;20061;-59
2023/11/26 08:25:41;;;;;;;31.75;15.18;;;;;;;-1.60;70.41;97871.81;5009989;28;20380;-60
2023/11/26 08:28:07;;;;;;;30.23;14.88;;;;;;;-1.66;70.41;97864.81;5010832;28;20049;-61
2023/11/26 08:30:42;;;;;;;33.25;15.35;;;;;;;-1.66;70.70;97858.81;5011168;28;20112;-60
2023/11/26 08:33:10;;;;;;;32.28;16.30;;;;;;;-1.60;70.57;97863.22;5010216;28;20041;-59
2023/11/26 08:35:37;;;;;;;35.25;16.73;;;;;;;-1.56;70.45;97859.22;5012712;28;20137;-61
2023/11/26 08:38:05;;;;;;;32.20;16.20;;;;;;;-1.53;70.49;97856.25;5012700;28;20041;-61
2023/11/26 08:40:34;;;;;;;37.97;17.08;;;;;;;-1.45;70.78;97863.06;5012957;28;20061;-62
2023/11/26 08:43:04;;;;;;;31.30;16.65;;;;;;;-1.54;70.43;97865.03;5013519;28;20045;-59
2023/11/26 08:45:31;;;;;;;31.63;15.77;;;;;;;-1.58;70.68;97860.44;5014377;28;20049;-60
2023/11/26 08:47:57;;;;;;;40.92;18.00;;;;;;;-1.50;70.83;97857.66;5011132;28;20096;-59
2023/11/26 08:50:23;;;;;;;37.67;18.17;;;;;;;-1.45;70.42;97863.06;4993510;28;20041;-59
2023/11/26 08:52:52;;;;;;;36.92;16.80;;;;;;;-1.48;70.60;97851.25;5025268;28;20042;-60
2023/11/26 08:55:20;;;;;;;39.13;17.92;;;;;;;-1.44;70.42;97841.25;5026743;28;20038;-61
2023/11/26 08:57:46;;;;;;;33.00;17.33;;;;;;;-1.39;70.02;97844.06;4993689;28;20065;-61
2023/11/26 09:00:12;;;;;;;41.33;17.92;;;;;;;-1.45;70.32;97837.06;5009674;28;20396;-60
2023/11/26 09:02:40;;;;;;;39.15;19.30;;;;;;;-1.39;70.57;97825.88;5011416;28;20046;-57
2023/11/26 09:05:10;;;;;;;36.95;18.45;;;;;;;-1.33;70.15;97822.47;5025858;28;20052;-59
2023/11/26 09:07:40;;;;;;;37.90;17.52;;;;;;;-1.32;70.26;97824.09;5008638;28;20046;-59
2023/11/26 09:10:07;;;;;;;43.75;19.90;;;;;;;-1.29;70.05;97815.91;5009969;28;20096;-61
2023/11/26 09:12:32;;;;;;;40.80;18.73;;;;;;;-1.25;69.75;97808.50;5018828;28;20101;-60
2023/11/26 09:14:59;;;;;;;37.22;18.33;;;;;;;-1.24;69.44;97810.88;5010959;28;20046;-60
2023/11/26 09:17:25;;;;;;;36.13;17.77;;;;;;;-1.28;69.67;97814.09;5026159;28;20046;-57
2023/11/26 09:19:53;;;;;;;40.33;19.58;;;;;;;-1.34;70.17;97807.88;5011895;28;20100;-61
2023/11/26 09:22:18;;;;;;;41.15;19.15;;;;;;;-1.27;70.03;97808.69;5014753;28;20196;-61
2023/11/26 09:24:44;;;;;;;39.78;18.15;;;;;;;-1.28;69.48;97809.69;5015130;28;20494;-59
2023/11/26 09:27:10;;;;;;;36.75;19.75;;;;;;;-1.25;69.58;97808.50;5012857;28;20196;-61
2023/11/26 09:29:35;;;;;;;43.72;19.27;;;;;;;-1.15;68.92;97809.72;5029445;28;20508;-62
2023/11/26 09:32:01;;;;;;;36.75;18.27;;;;;;;-1.15;68.66;97793.28;5014367;28;20045;-61
2023/11/26 09:34:27;;;;;;;39.22;18.38;;;;;;;-1.21;68.69;97802.69;5013026;28;20503;-61
2023/11/26 09:36:52;;;;;;;32.65;16.83;;;;;;;-1.24;68.99;97792.69;5014369;28;20111;-58
2023/11/26 09:39:19;;;;;;;37.08;18.75;;;;;;;-1.27;69.09;97797.50;5014314;28;20042;-60
2023/11/26 09:41:45;;;;;;;43.13;19.85;;;;;;;-1.37;69.26;97798.69;5014638;28;20034;-60
2023/11/26 09:44:11;;;;;;;37.35;18.27;;;;;;;-1.34;69.58;97804.50;5013979;28;20046;-63
2023/11/26 09:46:37;;;;;;;43.95;20.58;;;;;;;-1.29;69.35;97800.31;5014533;28;20152;-60
2023/11/26 09:49:03;;;;;;;37.70;18.55;;;;;;;-1.28;69.43;97793.31;4995973;28;20048;-58
2023/11/26 09:51:31;;;;;;;36.13;15.98;;;;;;;-1.48;69.46;97796.69;5014432;28;20133;-61
2023/11/26 09:53:58;;;;;;;36.92;17.83;;;;;;;-1.45;69.58;97808.47;5014266;28;20476;-60
2023/11/26 09:56:24;;;;;;;39.67;17.90;;;;;;;-1.42;69.50;97808.09;5014129;28;20049;-62
2023/11/26 09:58:50;;;;;;;38.65;18.60;;;;;;;-1.45;69.49;97795.50;4996186;28;20051;-59
2023/11/26 10:01:16;;;;;;;35.55;17.63;;;;;;;-1.41;69.41;97796.72;5013096;28;20423;-62
2023/11/26 10:04:04;;;;;;;37.35;17.38;;;;;;;-1.44;69.57;97803.09;5014058;28;20081;-60
2023/11/26 10:06:30;;;;;;;39.35;18.38;;;;;;;-1.42;69.93;97802.88;5012424;28;20077;-57
2023/11/26 10:08:57;;;;;;;33.72;18.35;;;;;;;-1.44;69.82;97800.50;4995578;28;20053;-61
2023/11/26 10:11:26;;;;;;;34.28;16.77;;;;;;;-1.45;69.26;97808.47;5013069;28;20053;-61
2023/11/26 10:13:53;;;;;;;37.97;17.63;;;;;;;-1.44;69.57;97813.50;4995071;28;20121;-61
2023/11/26 10:16:34;;;;;;;34.17;17.48;;;;;;;-1.49;69.90;97799.50;5012925;28;20072;-58
2023/11/26 10:19:02;;;;;;;36.83;17.48;;;;;;;-1.44;69.68;97804.88;5011452;28;20558;-54
2023/11/26 10:21:29;;;;;;;37.53;17.33;;;;;;;-1.45;69.45;97811.09;5011504;28;20250;-59
2023/11/26 10:23:55;;;;;;;46.42;20.42;;;;;;;-1.45;69.47;97809.28;5010632;28;20042;-59
2023/11/26 10:26:23;;;;;;;42.42;20.20;;;;;;;-1.35;69.61;97802.88;5008580;28;20124;-59
2023/11/26 10:29:08;;;;;;;37.53;18.38;;;;;;;-1.51;69.55;97796.28;5010732;28;20041;-57
2023/11/26 10:31:54;;;;;;;35.78;17.77;;;;;;;-1.64;70.00;97794.47;5011196;28;20046;-56
2023/11/26 10:34:19;;;;;;;36.83;17.73;;;;;;;-1.77;70.52;97802.25;5010472;28;20041;-57
2023/11/26 10:36:45;;;;;;;43.80;19.38;;;;;;;-1.79;70.72;97786.03;5011038;28;20033;-60
2023/11/26 10:39:11;;;;;;;39.45;18.20;;;;;;;-1.67;70.47;97785.28;4997713;28;20470;-61
2023/11/26 10:41:37;;;;;;;40.35;20.10;;;;;;;-1.62;70.32;97769.06;4997855;28;20076;-64
2023/11/26 10:44:05;;;;;;;35.08;17.10;;;;;;;-1.63;70.12;97781.28;5028774;28;20045;-60
2023/11/26 10:46:36;;;;;;;34.83;18.33;;;;;;;-1.64;70.39;97774.50;5013962;28;20427;-58
2023/11/26 10:49:08;;;;;;;33.78;17.35;;;;;;;-1.55;70.21;97782.91;5014057;28;20046;-62
2023/11/26 10:51:37;;;;;;;34.30;16.67;;;;;;;-1.62;69.83;97774.28;4995893;28;20038;-60
2023/11/26 10:54:14;;;;;;;37.45;17.73;;;;;;;-1.64;70.41;97777.09;5011893;28;20529;-60
2023/11/26 10:56:43;;;;;;;31.45;16.58;;;;;;;-1.65;70.41;97777.28;5012014;28;20052;-58
2023/11/26 10:59:14;;;;;;;35.97;16.90;;;;;;;-1.74;70.44;97760.28;4995698;28;20048;-59
2023/11/26 11:01:40;;;;;;;34.88;16.25;;;;;;;-1.65;70.63;97772.06;5012008;28;20038;-60
2023/11/26 11:04:14;;;;;;;33.80;15.85;;;;;;;-1.56;70.03;97781.28;5011391;28;20097;-61
2023/11/26 11:06:43;;;;;;;35.55;16.92;;;;;;;-1.58;70.03;97764.31;5011966;28;20045;-61
2023/11/26 11:09:13;;;;;;;31.58;15.43;;;;;;;-1.77;70.25;97764.06;5011701;28;20058;-62
2023/11/26 11:12:05;;;;;;;29.52;15.20;;;;;;;-1.84;70.75;97753.69;4995318;28;20045;-60
2023/11/26 11:14:32;;;;;;;34.72;16.65;;;;;;;-1.81;70.76;97760.28;4993462;28;20046;-61
2023/11/26 11:16:58;;;;;;;38.60;17.55;;;;;;;-1.81;70.75;97751.69;5011992;28;20049;-62
2023/11/26 11:19:46;;;;;;;31.27;16.83;;;;;;;-1.67;70.51;97755.91;5012928;28;20426;-61
2023/11/26 11:22:12;;;;;;;32.83;17.25;;;;;;;-1.64;70.39;97747.72;5010996;28;20053;-59
2023/11/26 11:24:37;;;;;;;32.67;16.90;;;;;;;-1.76;70.39;97750.09;5011780;28;20042;-60
2023/11/26 11:27:03;;;;;;;37.65;18.33;;;;;;;-1.81;70.54;97755.09;5011879;28;20530;-61
2023/11/26 11:29:33;;;;;;;35.10;16.33;;;;;;;-1.83;70.72;97757.88;5011137;28;20526;-60
2023/11/26 11:32:02;;;;;;;35.40;17.25;;;;;;;-1.82;70.79;97748.31;4978760;28;20115;-61
2023/11/26 11:34:31;;;;;;;36.65;17.85;;;;;;;-1.75;71.01;97732.72;5027054;28;20048;-61
2023/11/26 11:36:58;;;;;;;30.98;14.85;;;;;;;-1.79;70.28;97741.88;5011509;28;20041;-62
2023/11/26 11:39:41;;;;;;;29.00;15.15;;;;;;;-1.83;70.34;97736.28;5011329;28;20491;-61
2023/11/26 11:42:12;;;;;;;26.80;13.30;;;;;;;-1.97;70.72;97745.06;4993855;28;20164;-60
2023/11/26 11:44:44;;;;;;;30.98;14.75;;;;;;;-2.04;71.11;97733.88;5010955;28;20048;-61
2023/11/26 11:47:12;;;;;;;24.52;13.18;;;;;;;-2.07;71.18;97735.84;5010414;28;20054;-61
2023/11/26 11:49:44;;;;;;;34.63;15.68;;;;;;;-2.02;71.32;97731.88;4994762;28;20141;-62
2023/11/26 11:52:11;;;;;;;23.35;13.65;;;;;;;-2.00;71.17;97729.88;5012515;28;20458;-61
2023/11/26 11:54:58;;;;;;;30.02;15.55;;;;;;;-2.01;71.30;97728.28;4994572;28;20041;-61
2023/11/26 11:57:26;;;;;;;33.33;15.20;;;;;;;-2.09;71.90;97721.47;5012658;28;20042;-60
2023/11/26 11:59:54;;;;;;;32.88;15.10;;;;;;;-2.12;72.23;97727.88;5011933;28;20037;-62
2023/11/26 12:02:21;;;;;;;30.95;16.88;;;;;;;-2.19;72.66;97719.25;5012365;28;20503;-60
2023/11/26 12:04:47;;;;;;;30.95;14.60;;;;;;;-2.22;72.60;97726.66;5011114;28;20041;-60
2023/11/26 12:07:17;;;;;;;35.75;17.13;;;;;;;-2.35;72.98;97728.22;5012218;28;20050;-62
2023/11/26 12:09:44;;;;;;;36.22;17.73;;;;;;;-2.39;73.35;97716.59;5012240;28;20042;-62
2023/11/26 12:12:10;;;;;;;35.42;17.95;;;;;;;-2.28;73.42;97736.00;5010281;28;20042;-59
2023/11/26 12:14:36;;;;;;;34.38;16.73;;;;;;;-2.41;73.47;97736.78;5012011;28;20138;-60
2023/11/26 12:17:06;;;;;;;38.95;17.50;;;;;;;-2.40;73.62;97729.78;5010710;28;20124;-60
2023/11/26 12:19:40;;;;;;;34.28;16.85;;;;;;;-2.40;73.20;97735.78;5011014;28;20133;-60
2023/11/26 12:22:07;;;;;;;33.78;15.23;;;;;;;-2.45;72.73;97743.34;5012008;28;20054;-61
2023/11/26 12:24:34;;;;;;;29.98;14.23;;;;;;;-2.50;73.46;97745.72;5011469;28;20133;-61
2023/11/26 12:27:00;;;;;;;27.00;13.80;;;;;;;-2.55;73.56;97743.72;5010167;28;20064;-61
2023/11/26 12:29:34;;;;;;;34.60;17.38;;;;;;;-2.64;74.23;97731.91;5011548;28;20034;-62
2023/11/26 12:32:07;;;;;;;37.83;17.42;;;;;;;-2.61;73.99;97728.13;4993905;28;20456;-60
2023/11/26 12:34:38;;;;;;;40.97;16.75;;;;;;;-2.66;74.18;97725.31;5011033;28;20125;-62
2023/11/26 12:37:12;;;;;;;37.72;18.58;;;;;;;-2.68;74.26;97722.88;5011376;28;20380;-60
2023/11/26 12:39:41;;;;;;;35.72;17.90;;;;;;;-2.72;74.80;97720.88;5010499;28;20121;-61
2023/11/26 12:42:07;;;;;;;42.10;19.05;;;;;;;-2.70;74.41;97724.91;5011496;28;20099;-60
2023/11/26 12:44:33;;;;;;;41.45;19.08;;;;;;;-2.81;75.00;97722.84;5010280;28;20077;-64
2023/11/26 12:47:09;;;;;;;32.90;17.55;;;;;;;-2.79;74.97;97713.88;5011249;28;20160;-62
2023/11/26 12:49:37;;;;;;;37.78;17.75;;;;;;;-2.85;75.42;97717.25;5011559;28;20554;-61
2023/11/26 12:52:04;;;;;;;35.72;17.45;;;;;;;-2.81;75.08;97715.88;5011489;28;20041;-62
2023/11/26 12:54:30;;;;;;;33.58;16.30;;;;;;;-2.79;75.64;97715.69;5023556;28;20559;-58
2023/11/26 12:56:56;;;;;;;32.08;14.95;;;;;;;-2.88;75.48;97711.63;5026858;28;20086;-60
2023/11/26 12:59:22;;;;;;;34.58;15.82;;;;;;;-2.95;75.29;97708.22;5011189;28;20041;-61
2023/11/26 13:01:48;;;;;;;23.88;13.27;;;;;;;-2.93;75.64;97721.78;5010219;28;20523;-61
2023/11/26 13:04:14;;;;;;;37.03;16.33;;;;;;;-2.98;75.70;97714.56;5011330;28;20132;-61
2023/11/26 13:06:53;;;;;;;32.75;15.60;;;;;;;-2.97;76.01;97717.00;5011556;28;20128;-61
2023/11/26 13:09:19;;;;;;;33.22;15.90;;;;;;;-2.91;75.69;97704.22;5011379;28;20034;-59
2023/11/26 13:11:46;;;;;;;25.88;12.35;;;;;;;-3.02;75.25;97695.22;5009632;28;20088;-61
2023/11/26 13:14:20;;;;;;;32.15;14.48;;;;;;;-2.93;75.41;97714.00;5011118;28;20038;-60
2023/11/26 13:16:52;;;;;;;31.42;14.70;;;;;;;-3.03;75.84;97715.16;5008870;28;20064;-60
2023/11/26 13:19:17;;;;;;;34.17;15.25;;;;;;;-3.03;75.36;97707.38;5011500;28;20038;-62
2023/11/26 13:21:47;;;;;;;33.08;15.32;;;;;;;-3.00;75.54;97698.41;5010263;28;20038;-61
2023/11/26 13:24:17;;;;;;;31.67;15.25;;;;;;;-3.05;75.86;97695.59;5009544;28;20046;-60
2023/11/26 13:26:43;;;;;;;27.15;12.93;;;;;;;-3.14;76.08;97712.31;4989836;28;20054;-60
2023/11/26 13:29:09;;;;;;;34.28;16.75;;;;;;;-3.12;76.20;97705.13;4993706;28;20509;-61
2023/11/26 13:31:35;;;;;;;35.13;16.95;;;;;;;-3.13;76.43;97717.28;5009528;28;20116;-61
2023/11/26 13:34:02;;;;;;;33.47;17.52;;;;;;;-3.11;75.72;97719.69;5009506;28;20057;-60
2023/11/26 13:36:27;;;;;;;32.60;15.45;;;;;;;-3.13;76.58;97722.47;5009468;28;20072;-61
2023/11/26 13:38:53;;;;;;;35.55;16.60;;;;;;;-3.11;76.54;97727.47;5005079;28;20049;-61
2023/11/26 13:41:20;;;;;;;31.20;15.63;;;;;;;-3.14;76.26;97715.69;5011087;28;20458;-60
2023/11/26 13:43:46;;;;;;;33.45;13.95;;;;;;;-3.15;76.46;97714.06;5010744;28;20125;-60
2023/11/26 13:46:12;;;;;;;33.75;14.48;;;;;;;-3.13;76.41;97709.50;5010197;28;20483;-61
2023/11/26 13:48:40;;;;;;;37.50;16.23;;;;;;;-3.00;76.33;97713.97;5009724;28;20061;-58
2023/11/26 13:51:07;;;;;;;35.05;15.52;;;;;;;-3.01;75.64;97713.16;5001912;28;20072;-58
2023/11/26 13:53:33;;;;;;;28.27;14.80;;;;;;;-3.05;76.26;97696.41;4973422;28;20500;-58
2023/11/26 13:55:59;;;;;;;30.00;14.55;;;;;;;-3.09;76.04;97707.34;4992622;28;20048;-61
2023/11/26 13:58:25;;;;;;;30.92;14.02;;;;;;;-3.14;76.05;97702.75;5007798;28;20411;-63
2023/11/26 14:00:51;;;;;;;36.53;17.30;;;;;;;-3.12;75.98;97700.72;4993051;28;20069;-60
2023/11/26 14:03:16;;;;;;;25.17;12.65;;;;;;;-3.21;76.49;97697.53;5009391;28;20042;-61
2023/11/26 14:05:42;;;;;;;32.65;15.05;;;;;;;-3.16;76.87;97688.38;5010383;28;20038;-63
2023/11/26 14:08:08;;;;;;;29.52;13.77;;;;;;;-3.23;76.70;97696.91;5013651;28;20084;-59
2023/11/26 14:10:34;;;;;;;28.23;13.30;;;;;;;-3.15;76.01;97693.34;5012000;28;20145;-62
2023/11/26 14:13:01;;;;;;;29.38;14.15;;;;;;;-3.24;76.36;97691.91;5012698;28;20049;-60
2023/11/26 14:15:27;;;;;;;32.70;15.02;;;;;;;-3.23;76.54;97693.53;5029178;28;20527;-59
2023/11/26 14:17:53;;;;;;;34.90;15.63;;;;;;;-3.37;77.24;97690.03;5013743;28;20058;-59
2023/11/26 14:20:20;;;;;;;25.38;13.38;;;;;;;-3.39;76.88;97689.41;5011403;28;20042;-61
2023/11/26 14:22:47;;;;;;;30.20;14.82;;;;;;;-3.36;77.07;97681.25;5011890;28;20045;-60
2023/11/26 14:25:15;;;;;;;34.80;16.42;;;;;;;-3.38;77.39;97680.69;4996047;28;20076;-56
2023/11/26 14:27:45;;;;;;;31.33;15.20;;;;;;;-3.40;77.45;97684.44;5012173;28;20089;-60
2023/11/26 14:30:12;;;;;;;26.58;12.75;;;;;;;-3.35;77.08;97676.88;4995902;28;20419;-59
2023/11/26 14:32:42;;;;;;;29.10;13.55;;;;;;;-3.45;77.00;97680.63;5012757;28;20048;-59
2023/11/26 14:35:08;;;;;;;26.08;13.57;;;;;;;-3.44;77.72;97682.22;4995727;28;20045;-60
2023/11/26 14:37:34;;;;;;;32.83;15.45;;;;;;;-3.39;77.46;97679.06;5007691;28;20570;-60
2023/11/26 14:40:09;;;;;;;33.92;15.70;;;;;;;-3.52;77.73;97672.00;5008955;28;20038;-62
2023/11/26 14:42:40;;;;;;;31.00;15.75;;;;;;;-3.49;77.20;97678.59;4993988;28;20043;-60
2023/11/26 14:45:06;;;;;;;;;;;;;;;-3.56;77.99;97677.75;5013158;28;20495;-59
2023/11/26 14:47:33;;;;;;;28.38;14.35;;;;;;;-3.55;77.64;97674.19;4995445;28;19925;-61
2023/11/26 14:50:02;;;;;;;24.33;13.23;;;;;;;-3.56;77.64;97672.56;5012015;28;20061;-62
2023/11/26 14:52:33;;;;;;;34.50;15.13;;;;;;;-3.65;78.02;97666.72;4978241;28;20511;-59
2023/11/26 14:55:01;;;;;;;24.08;12.52;;;;;;;-3.61;77.34;97662.78;5023482;28;20042;-61
2023/11/26 14:57:30;;;;;;;;;;;;;;;-3.59;77.82;97660.00;5012368;28;20045;-60